createdAt,value
2023-11-19T00:00:10.173Z,25.93
2023-11-19T00:00:40.204Z,25.91
2023-11-19T00:01:10.329Z,25.93
2023-11-19T00:01:40.437Z,25.92
2023-11-19T00:02:10.487Z,25.93
2023-11-19T00:02:40.697Z,25.93
2023-11-19T00:03:10.555Z,25.91
2023-11-19T00:03:40.607Z,25.89
2023-11-19T00:04:10.672Z,25.92
2023-11-19T00:04:40.724Z,25.92
2023-11-19T00:05:11.003Z,25.89
2023-11-19T00:05:40.810Z,25.89
2023-11-19T00:06:10.787Z,25.89
2023-11-19T00:06:40.813Z,25.92
2023-11-19T00:07:10.971Z,25.89
2023-11-19T00:07:40.966Z,25.91
2023-11-19T00:08:10.979Z,25.91
2023-11-19T00:08:40.959Z,25.89
2023-11-19T00:09:41.060Z,25.89
2023-11-19T00:10:11.215Z,25.89
2023-11-19T00:10:41.106Z,25.91
2023-11-19T00:11:11.145Z,25.89
2023-11-19T00:11:41.132Z,25.91
2023-11-19T00:12:41.211Z,25.88
2023-11-19T00:13:11.257Z,25.89
2023-11-19T00:13:41.281Z,25.91
2023-11-19T00:14:11.310Z,25.88
2023-11-19T00:14:41.341Z,25.89
2023-11-19T00:15:11.376Z,25.89
2023-11-19T00:15:41.413Z,25.89
2023-11-19T00:16:11.464Z,25.88
2023-11-19T00:16:41.492Z,25.89
2023-11-19T00:17:11.547Z,25.88
2023-11-19T00:17:41.851Z,25.89
2023-11-19T00:18:11.692Z,25.88
2023-11-19T00:18:41.812Z,25.89
2023-11-19T00:19:11.756Z,25.89
2023-11-19T00:19:41.786Z,25.89
2023-11-19T00:20:11.836Z,25.89
2023-11-19T00:20:41.859Z,25.88
2023-11-19T00:21:11.888Z,25.89
2023-11-19T00:21:41.920Z,25.89
2023-11-19T00:22:11.999Z,25.88
2023-11-19T00:22:49.401Z,25.89
2023-11-19T00:23:12.068Z,25.88
2023-11-19T00:23:42.116Z,25.88
2023-11-19T00:24:12.147Z,25.89
2023-11-19T00:24:42.180Z,25.91
2023-11-19T00:25:12.245Z,25.88
2023-11-19T00:25:42.277Z,25.89
2023-11-19T00:26:12.307Z,25.88
2023-11-19T00:26:42.366Z,25.89
2023-11-19T00:27:12.380Z,25.88
2023-11-19T00:27:42.407Z,25.91
2023-11-19T00:28:12.458Z,25.89
2023-11-19T00:28:42.476Z,25.91
2023-11-19T00:29:12.507Z,25.89
2023-11-19T00:29:42.535Z,25.88
2023-11-19T00:30:12.570Z,25.87
2023-11-19T00:30:42.596Z,25.91
2023-11-19T00:31:12.735Z,25.88
2023-11-19T00:31:42.761Z,25.88
2023-11-19T00:32:12.770Z,25.88
2023-11-19T00:32:42.818Z,25.91
2023-11-19T00:33:12.858Z,25.89
2023-11-19T00:34:12.998Z,25.89
2023-11-19T00:34:42.995Z,25.88
2023-11-19T00:35:13.009Z,25.89
2023-11-19T00:35:43.067Z,25.89
2023-11-19T00:36:13.099Z,25.88
2023-11-19T00:36:43.133Z,25.89
2023-11-19T00:37:13.230Z,25.89
2023-11-19T00:37:43.255Z,25.88
2023-11-19T00:38:13.296Z,25.91
2023-11-19T00:38:43.318Z,25.88
2023-11-19T00:39:13.377Z,25.89
2023-11-19T00:39:43.378Z,25.91
2023-11-19T00:40:13.436Z,25.89
2023-11-19T00:40:43.481Z,25.89
2023-11-19T00:41:13.505Z,25.91
2023-11-19T00:41:43.537Z,25.89
2023-11-19T00:42:13.613Z,25.88
2023-11-19T00:42:43.624Z,25.92
2023-11-19T00:43:13.793Z,25.89
2023-11-19T00:43:43.727Z,25.91
2023-11-19T00:44:13.757Z,25.91
2023-11-19T00:44:51.122Z,25.91
2023-11-19T00:45:13.840Z,25.89
2023-11-19T00:45:43.906Z,25.89
2023-11-19T00:46:13.983Z,25.92
2023-11-19T00:46:44.097Z,25.89
2023-11-19T00:47:14.058Z,25.89
2023-11-19T00:47:44.144Z,25.91
2023-11-19T00:48:14.088Z,25.89
2023-11-19T00:48:44.108Z,25.89
2023-11-19T00:49:14.211Z,25.89
2023-11-19T00:49:44.264Z,25.91
2023-11-19T00:50:14.661Z,25.91
2023-11-19T00:50:44.354Z,25.91
2023-11-19T00:51:14.383Z,25.88
2023-11-19T00:51:44.416Z,25.91
2023-11-19T00:52:14.491Z,25.92
2023-11-19T00:52:44.524Z,25.92
2023-11-19T00:53:14.563Z,25.91
2023-11-19T00:53:44.584Z,25.89
2023-11-19T00:54:14.617Z,25.91
2023-11-19T00:54:44.692Z,25.91
2023-11-19T00:55:14.746Z,25.91
2023-11-19T00:55:47.769Z,25.89
2023-11-19T00:56:14.855Z,25.89
2023-11-19T00:56:44.883Z,25.92
2023-11-19T00:57:14.932Z,25.89
2023-11-19T00:57:44.984Z,25.91
2023-11-19T00:58:15.050Z,25.92
2023-11-19T00:58:45.083Z,25.91
2023-11-19T00:59:15.142Z,25.89
2023-11-19T00:59:45.229Z,25.89
2023-11-19T01:00:15.238Z,25.89
2023-11-19T01:00:45.269Z,25.92
2023-11-19T01:01:15.337Z,25.91
2023-11-19T01:01:45.360Z,25.91
2023-11-19T01:02:15.479Z,25.91
2023-11-19T01:02:45.558Z,25.93
2023-11-19T01:03:15.555Z,25.92
2023-11-19T01:03:45.674Z,25.91
2023-11-19T01:04:15.655Z,25.91
2023-11-19T01:04:45.704Z,25.91
2023-11-19T01:05:15.764Z,25.91
2023-11-19T01:05:45.798Z,25.92
2023-11-19T01:06:15.772Z,25.92
2023-11-19T01:07:15.844Z,25.92
2023-11-19T01:07:45.861Z,25.89
2023-11-19T01:08:15.987Z,25.92
2023-11-19T01:08:45.996Z,25.93
2023-11-19T01:09:15.995Z,25.91
2023-11-19T01:09:45.986Z,25.93
2023-11-19T01:10:46.077Z,25.89
2023-11-19T01:11:16.080Z,25.93
2023-11-19T01:12:16.147Z,25.91
2023-11-19T01:12:46.148Z,25.92
2023-11-19T01:13:16.225Z,25.91
2023-11-19T01:13:46.232Z,25.91
2023-11-19T01:14:16.258Z,25.92
2023-11-19T01:14:46.294Z,25.91
2023-11-19T01:15:16.327Z,25.91
2023-11-19T01:15:46.395Z,25.93
2023-11-19T01:16:16.498Z,25.89
2023-11-19T01:16:46.575Z,25.91
2023-11-19T01:17:16.626Z,25.93
2023-11-19T01:18:16.783Z,25.93
2023-11-19T01:18:46.816Z,25.92
2023-11-19T01:19:18.342Z,25.93
2023-11-19T01:19:46.935Z,25.92
2023-11-19T01:20:16.912Z,25.92
2023-11-19T01:20:46.932Z,25.91
2023-11-19T01:21:16.987Z,25.93
2023-11-19T01:21:47.000Z,25.91
2023-11-19T01:22:17.081Z,25.93
2023-11-19T01:22:47.117Z,25.93
2023-11-19T01:23:17.138Z,25.89
2023-11-19T01:23:47.186Z,25.91
2023-11-19T01:24:17.215Z,25.92
2023-11-19T01:24:47.241Z,25.92
2023-11-19T01:25:17.299Z,25.93
2023-11-19T01:25:47.340Z,25.93
2023-11-19T01:26:17.376Z,25.93
2023-11-19T01:26:47.401Z,25.92
2023-11-19T01:27:17.453Z,25.93
2023-11-19T01:27:47.498Z,25.92
2023-11-19T01:28:17.539Z,25.95
2023-11-19T01:29:17.784Z,25.91
2023-11-19T01:29:47.733Z,25.91
2023-11-19T01:30:17.750Z,25.93
2023-11-19T01:30:47.784Z,25.92
2023-11-19T01:31:17.823Z,25.92
2023-11-19T01:31:47.848Z,25.93
2023-11-19T01:32:17.891Z,25.93
2023-11-19T01:32:47.947Z,25.92
2023-11-19T01:33:17.973Z,25.95
2023-11-19T01:33:48.026Z,25.93
2023-11-19T01:34:18.144Z,25.92
2023-11-19T01:34:48.147Z,25.93
2023-11-19T01:35:18.150Z,25.91
2023-11-19T01:35:48.182Z,25.93
2023-11-19T01:36:18.215Z,25.95
2023-11-19T01:36:48.253Z,25.93
2023-11-19T01:37:18.342Z,25.93
2023-11-19T01:37:48.421Z,25.91
2023-11-19T01:38:18.429Z,25.92
2023-11-19T01:38:48.460Z,25.93
2023-11-19T01:39:18.500Z,25.92
2023-11-19T01:39:58.972Z,25.93
2023-11-19T01:40:18.613Z,25.92
2023-11-19T01:40:48.667Z,25.93
2023-11-19T01:41:18.692Z,25.91
2023-11-19T01:41:48.728Z,25.89
2023-11-19T01:42:18.753Z,25.91
2023-11-19T01:42:48.786Z,25.93
2023-11-19T01:43:18.860Z,25.93
2023-11-19T01:43:48.882Z,25.93
2023-11-19T01:44:18.954Z,25.92
2023-11-19T01:44:48.990Z,25.92
2023-11-19T01:45:19.028Z,25.91
2023-11-19T01:45:49.109Z,25.93
2023-11-19T01:46:19.194Z,25.95
2023-11-19T01:46:49.430Z,25.91
2023-11-19T01:47:19.156Z,25.93
2023-11-19T01:47:49.227Z,25.93
2023-11-19T01:48:19.236Z,25.92
2023-11-19T01:48:49.271Z,25.92
2023-11-19T01:49:19.373Z,25.92
2023-11-19T01:49:49.395Z,25.91
2023-11-19T01:50:19.452Z,25.92
2023-11-19T01:50:49.493Z,25.91
2023-11-19T01:51:19.589Z,25.89
2023-11-19T01:51:49.625Z,25.91
2023-11-19T01:52:19.657Z,25.89
2023-11-19T01:52:49.699Z,25.92
2023-11-19T01:53:19.740Z,25.92
2023-11-19T01:53:49.764Z,25.91
2023-11-19T01:54:19.796Z,25.91
2023-11-19T01:54:49.827Z,25.93
2023-11-19T01:55:19.891Z,25.91
2023-11-19T01:55:49.901Z,25.93
2023-11-19T01:56:19.935Z,25.92
2023-11-19T01:56:49.961Z,25.91
2023-11-19T01:57:19.992Z,25.93
2023-11-19T01:57:50.025Z,25.92
2023-11-19T01:58:20.109Z,25.91
2023-11-19T01:58:50.139Z,25.88
2023-11-19T01:59:20.171Z,25.91
2023-11-19T01:59:50.240Z,25.92
2023-11-19T02:00:20.282Z,25.92
2023-11-19T02:00:50.324Z,25.89
2023-11-19T02:01:20.419Z,25.89
2023-11-19T02:02:00.555Z,25.89
2023-11-19T02:02:20.495Z,25.92
2023-11-19T02:02:50.702Z,25.91
2023-11-19T02:03:20.692Z,25.89
2023-11-19T02:03:50.750Z,25.92
2023-11-19T02:04:20.645Z,25.89
2023-11-19T02:04:50.733Z,25.88
2023-11-19T02:05:20.723Z,25.89
2023-11-19T02:05:50.717Z,25.91
2023-11-19T02:06:20.715Z,25.92
2023-11-19T02:07:20.799Z,25.93
2023-11-19T02:07:50.801Z,25.88
2023-11-19T02:08:20.802Z,25.91
2023-11-19T02:08:50.913Z,25.89
2023-11-19T02:09:21.044Z,25.91
2023-11-19T02:09:51.047Z,25.89
2023-11-19T02:10:21.111Z,25.89
2023-11-19T02:10:51.120Z,25.88
2023-11-19T02:11:21.237Z,25.89
2023-11-19T02:11:51.239Z,25.88
2023-11-19T02:12:21.353Z,25.91
2023-11-19T02:12:51.362Z,25.89
2023-11-19T02:13:21.435Z,25.88
2023-11-19T02:13:51.458Z,25.88
2023-11-19T02:14:21.498Z,25.89
2023-11-19T02:14:51.540Z,25.89
2023-11-19T02:15:21.596Z,25.89
2023-11-19T02:15:51.637Z,25.89
2023-11-19T02:16:21.705Z,25.88
2023-11-19T02:16:51.753Z,25.87
2023-11-19T02:17:21.767Z,25.89
2023-11-19T02:17:51.800Z,25.88
2023-11-19T02:18:21.825Z,25.88
2023-11-19T02:18:51.871Z,25.89
2023-11-19T02:19:21.886Z,25.88
2023-11-19T02:19:51.917Z,25.89
2023-11-19T02:20:21.952Z,25.88
2023-11-19T02:20:52.002Z,25.88
2023-11-19T02:21:22.020Z,25.89
2023-11-19T02:21:52.060Z,25.87
2023-11-19T02:22:22.104Z,25.89
2023-11-19T02:22:52.119Z,25.87
2023-11-19T02:23:22.165Z,25.88
2023-11-19T02:23:52.202Z,25.88
2023-11-19T02:24:22.229Z,25.88
2023-11-19T02:24:52.258Z,25.88
2023-11-19T02:25:22.342Z,25.85
2023-11-19T02:25:52.355Z,25.89
2023-11-19T02:26:22.405Z,25.87
2023-11-19T02:26:52.431Z,25.87
2023-11-19T02:27:22.459Z,25.89
2023-11-19T02:27:52.507Z,25.89
2023-11-19T02:28:22.575Z,25.88
2023-11-19T02:28:52.652Z,25.89
2023-11-19T02:29:22.685Z,25.89
2023-11-19T02:29:52.720Z,25.91
2023-11-19T02:30:22.758Z,25.88
2023-11-19T02:30:52.902Z,25.91
2023-11-19T02:31:22.889Z,25.91
2023-11-19T02:31:52.864Z,25.88
2023-11-19T02:32:22.892Z,25.88
2023-11-19T02:32:52.950Z,25.89
2023-11-19T02:33:23.001Z,25.85
2023-11-19T02:33:53.089Z,25.89
2023-11-19T02:34:23.079Z,25.89
2023-11-19T02:34:53.117Z,25.88
2023-11-19T02:35:23.149Z,25.89
2023-11-19T02:35:53.206Z,25.88
2023-11-19T02:36:23.241Z,25.87
2023-11-19T02:36:53.312Z,25.89
2023-11-19T02:37:23.340Z,25.87
2023-11-19T02:37:53.371Z,25.89
2023-11-19T02:38:23.393Z,25.89
2023-11-19T02:38:53.418Z,25.91
2023-11-19T02:39:23.462Z,25.91
2023-11-19T02:39:53.498Z,25.91
2023-11-19T02:40:23.549Z,25.88
2023-11-19T02:40:53.562Z,25.88
2023-11-19T02:41:23.605Z,25.89
2023-11-19T02:41:53.632Z,25.89
2023-11-19T02:42:23.685Z,25.87
2023-11-19T02:42:53.736Z,25.87
2023-11-19T02:43:23.800Z,25.89
2023-11-19T02:43:53.814Z,25.89
2023-11-19T02:44:23.847Z,25.89
2023-11-19T02:44:53.874Z,25.88
2023-11-19T02:45:23.914Z,25.89
2023-11-19T02:45:53.984Z,25.89
2023-11-19T02:46:24.177Z,25.89
2023-11-19T02:46:54.134Z,25.88
2023-11-19T02:47:24.181Z,25.89
2023-11-19T02:47:54.413Z,25.91
2023-11-19T02:48:24.318Z,25.91
2023-11-19T02:48:54.446Z,25.91
2023-11-19T02:49:24.358Z,25.89
2023-11-19T02:49:54.508Z,25.92
2023-11-19T02:50:24.421Z,25.89
2023-11-19T02:50:54.477Z,25.88
2023-11-19T02:51:24.498Z,25.91
2023-11-19T02:51:54.552Z,25.89
2023-11-19T02:52:24.640Z,25.91
2023-11-19T02:52:54.665Z,25.89
2023-11-19T02:53:24.702Z,25.89
2023-11-19T02:53:54.737Z,25.88
2023-11-19T02:54:24.764Z,25.91
2023-11-19T02:54:54.827Z,25.89
2023-11-19T02:55:24.876Z,25.89
2023-11-19T02:55:54.902Z,25.91
2023-11-19T02:56:24.936Z,25.92
2023-11-19T02:56:54.970Z,25.91
2023-11-19T02:57:24.999Z,25.92
2023-11-19T02:57:55.102Z,25.91
2023-11-19T02:58:25.221Z,25.91
2023-11-19T02:58:55.409Z,25.92
2023-11-19T02:59:25.353Z,25.91
2023-11-19T02:59:55.382Z,25.88
2023-11-19T03:00:25.434Z,25.91
2023-11-19T03:00:55.596Z,25.92
2023-11-19T03:01:25.608Z,25.89
2023-11-19T03:01:55.755Z,25.89
2023-11-19T03:02:25.774Z,25.91
2023-11-19T03:02:55.925Z,25.91
2023-11-19T03:03:25.924Z,25.89
2023-11-19T03:03:56.026Z,25.92
2023-11-19T03:04:25.852Z,25.91
2023-11-19T03:04:55.844Z,25.92
2023-11-19T03:05:26.012Z,25.92
2023-11-19T03:05:55.996Z,25.92
2023-11-19T03:06:26.107Z,25.91
2023-11-19T03:06:56.126Z,25.91
2023-11-19T03:07:26.148Z,25.93
2023-11-19T03:07:56.130Z,25.91
2023-11-19T03:08:26.249Z,25.91
2023-11-19T03:08:56.366Z,25.93
2023-11-19T03:09:26.480Z,25.89
2023-11-19T03:09:56.752Z,25.89
2023-11-19T03:10:26.558Z,25.89
2023-11-19T03:10:56.544Z,25.92
2023-11-19T03:11:26.565Z,25.89
2023-11-19T03:12:26.615Z,25.89
2023-11-19T03:12:56.697Z,25.89
2023-11-19T03:13:26.748Z,25.92
2023-11-19T03:13:56.827Z,25.93
2023-11-19T03:14:26.840Z,25.92
2023-11-19T03:14:56.875Z,25.92
2023-11-19T03:15:26.901Z,25.92
2023-11-19T03:15:57.017Z,25.91
2023-11-19T03:16:27.068Z,25.92
2023-11-19T03:16:57.076Z,25.91
2023-11-19T03:17:27.069Z,25.92
2023-11-19T03:17:57.101Z,25.91
2023-11-19T03:18:27.130Z,25.91
2023-11-19T03:18:57.207Z,25.95
2023-11-19T03:19:27.267Z,25.93
2023-11-19T03:19:57.277Z,25.92
2023-11-19T03:20:27.317Z,25.93
2023-11-19T03:20:57.343Z,25.92
2023-11-19T03:21:27.376Z,25.92
2023-11-19T03:21:57.451Z,25.91
2023-11-19T03:22:27.496Z,25.95
2023-11-19T03:22:57.516Z,25.92
2023-11-19T03:23:27.545Z,25.92
2023-11-19T03:23:57.581Z,25.92
2023-11-19T03:24:27.628Z,25.92
2023-11-19T03:24:57.692Z,25.91
2023-11-19T03:25:27.670Z,25.91
2023-11-19T03:25:57.720Z,25.92
2023-11-19T03:26:27.753Z,25.93
2023-11-19T03:26:57.786Z,25.93
2023-11-19T03:27:27.823Z,25.92
2023-11-19T03:27:57.969Z,25.93
2023-11-19T03:28:27.919Z,25.93
2023-11-19T03:28:57.932Z,25.91
2023-11-19T03:29:27.975Z,25.92
2023-11-19T03:29:58.002Z,25.91
2023-11-19T03:30:58.140Z,25.92
2023-11-19T03:31:28.164Z,25.91
2023-11-19T03:31:58.190Z,25.89
2023-11-19T03:32:28.223Z,25.92
2023-11-19T03:32:58.324Z,25.92
2023-11-19T03:33:28.343Z,25.92
2023-11-19T03:33:59.569Z,25.91
2023-11-19T03:34:28.406Z,25.91
2023-11-19T03:34:58.443Z,25.92
2023-11-19T03:35:28.476Z,25.91
2023-11-19T03:35:58.499Z,25.93
2023-11-19T03:36:28.552Z,25.92
2023-11-19T03:36:58.624Z,25.91
2023-11-19T03:37:28.670Z,25.91
2023-11-19T03:37:58.714Z,25.92
2023-11-19T03:38:28.761Z,25.91
2023-11-19T03:38:58.814Z,25.91
2023-11-19T03:39:28.842Z,25.89
2023-11-19T03:39:59.892Z,25.91
2023-11-19T03:40:28.953Z,25.93
2023-11-19T03:40:58.965Z,25.91
2023-11-19T03:41:29.078Z,25.92
2023-11-19T03:41:59.107Z,25.91
2023-11-19T03:42:29.150Z,25.91
2023-11-19T03:42:59.214Z,25.92
2023-11-19T03:43:29.316Z,25.91
2023-11-19T03:43:59.329Z,25.91
2023-11-19T03:44:29.365Z,25.91
2023-11-19T03:44:59.410Z,25.91
2023-11-19T03:45:29.419Z,25.92
2023-11-19T03:45:59.500Z,25.91
2023-11-19T03:46:29.639Z,25.91
2023-11-19T03:46:59.624Z,25.91
2023-11-19T03:47:29.701Z,25.91
2023-11-19T03:47:59.776Z,25.93
2023-11-19T03:48:29.820Z,25.91
2023-11-19T03:48:59.846Z,25.91
2023-11-19T03:49:29.894Z,25.89
2023-11-19T03:49:59.915Z,25.91
2023-11-19T03:50:29.945Z,25.92
2023-11-19T03:50:59.974Z,25.91
2023-11-19T03:51:30.009Z,25.91
2023-11-19T03:52:00.064Z,25.91
2023-11-19T03:52:30.130Z,25.88
2023-11-19T03:53:00.213Z,25.89
2023-11-19T03:53:30.228Z,25.91
2023-11-19T03:54:00.342Z,25.88
2023-11-19T03:54:30.382Z,25.88
2023-11-19T03:55:00.497Z,25.89
2023-11-19T03:55:30.552Z,25.89
2023-11-19T03:56:00.499Z,25.91
2023-11-19T03:56:30.542Z,25.89
2023-11-19T03:57:00.579Z,25.91
2023-11-19T03:57:30.609Z,25.89
2023-11-19T03:58:00.722Z,25.89
2023-11-19T03:58:30.752Z,25.88
2023-11-19T03:59:00.782Z,25.89
2023-11-19T03:59:30.811Z,25.91
2023-11-19T04:00:00.876Z,25.89
2023-11-19T04:00:30.895Z,25.91
2023-11-19T04:01:00.938Z,25.88
2023-11-19T04:01:31.072Z,25.88
2023-11-19T04:02:01.150Z,25.89
2023-11-19T04:02:31.171Z,25.89
2023-11-19T04:03:01.314Z,25.89
2023-11-19T04:03:31.340Z,25.91
2023-11-19T04:04:01.450Z,25.89
2023-11-19T04:04:31.524Z,25.89
2023-11-19T04:05:01.535Z,25.91
2023-11-19T04:05:31.541Z,25.88
2023-11-19T04:06:01.659Z,25.88
2023-11-19T04:06:31.657Z,25.89
2023-11-19T04:07:31.757Z,25.89
2023-11-19T04:08:01.856Z,25.91
2023-11-19T04:08:31.854Z,25.89
2023-11-19T04:09:01.964Z,25.87
2023-11-19T04:09:32.079Z,25.89
2023-11-19T04:10:02.237Z,25.88
2023-11-19T04:10:32.258Z,25.88
2023-11-19T04:11:02.247Z,25.88
2023-11-19T04:12:02.338Z,25.89
2023-11-19T04:12:32.330Z,25.87
2023-11-19T04:13:02.420Z,25.89
2023-11-19T04:13:32.491Z,25.87
2023-11-19T04:14:02.613Z,25.88
2023-11-19T04:14:32.618Z,25.88
2023-11-19T04:15:02.780Z,25.91
2023-11-19T04:15:32.697Z,25.87
2023-11-19T04:16:02.822Z,25.89
2023-11-19T04:16:32.815Z,25.87
2023-11-19T04:17:02.766Z,25.88
2023-11-19T04:17:32.798Z,25.88
2023-11-19T04:18:02.870Z,25.87
2023-11-19T04:18:32.870Z,25.88
2023-11-19T04:19:02.924Z,25.89
2023-11-19T04:19:33.013Z,25.85
2023-11-19T04:20:03.142Z,25.88
2023-11-19T04:20:33.170Z,25.85
2023-11-19T04:21:03.201Z,25.88
2023-11-19T04:21:33.233Z,25.87
2023-11-19T04:22:03.303Z,25.89
2023-11-19T04:22:33.385Z,25.88
2023-11-19T04:23:03.417Z,25.87
2023-11-19T04:23:33.451Z,25.87
2023-11-19T04:24:03.474Z,25.85
2023-11-19T04:24:33.507Z,25.89
2023-11-19T04:25:03.616Z,25.88
2023-11-19T04:25:33.651Z,25.87
2023-11-19T04:26:33.768Z,25.88
2023-11-19T04:27:03.806Z,25.91
2023-11-19T04:27:33.842Z,25.89
2023-11-19T04:28:03.923Z,25.89
2023-11-19T04:28:33.934Z,25.88
2023-11-19T04:29:03.965Z,25.85
2023-11-19T04:29:34.011Z,25.88
2023-11-19T04:30:04.045Z,25.88
2023-11-19T04:30:34.070Z,25.88
2023-11-19T04:31:04.137Z,25.88
2023-11-19T04:31:34.246Z,25.89
2023-11-19T04:32:04.274Z,25.87
2023-11-19T04:32:34.374Z,25.88
2023-11-19T04:33:04.442Z,25.87
2023-11-19T04:33:34.464Z,25.87
2023-11-19T04:34:04.552Z,25.87
2023-11-19T04:34:34.683Z,25.88
2023-11-19T04:35:04.662Z,25.88
2023-11-19T04:35:34.694Z,25.88
2023-11-19T04:36:04.807Z,25.88
2023-11-19T04:36:34.830Z,25.88
2023-11-19T04:37:34.981Z,25.88
2023-11-19T04:38:04.979Z,25.88
2023-11-19T04:38:35.016Z,25.89
2023-11-19T04:39:05.049Z,25.88
2023-11-19T04:39:35.101Z,25.89
2023-11-19T04:40:05.234Z,25.89
2023-11-19T04:40:35.418Z,25.89
2023-11-19T04:41:05.153Z,25.88
2023-11-19T04:41:35.184Z,25.88
2023-11-19T04:42:05.223Z,25.89
2023-11-19T04:42:35.249Z,25.91
2023-11-19T04:43:05.301Z,25.89
2023-11-19T04:43:35.360Z,25.91
2023-11-19T04:44:05.404Z,25.88
2023-11-19T04:44:35.420Z,25.89
2023-11-19T04:45:05.462Z,25.88
2023-11-19T04:45:35.485Z,25.91
2023-11-19T04:46:05.660Z,25.91
2023-11-19T04:46:35.648Z,25.89
2023-11-19T04:47:05.794Z,25.91
2023-11-19T04:47:35.795Z,25.88
2023-11-19T04:48:05.828Z,25.89
2023-11-19T04:49:05.944Z,25.88
2023-11-19T04:49:36.012Z,25.89
2023-11-19T04:50:06.065Z,25.91
2023-11-19T04:50:36.075Z,25.89
2023-11-19T04:51:06.106Z,25.89
2023-11-19T04:51:36.134Z,25.89
2023-11-19T04:52:06.202Z,25.91
2023-11-19T04:52:36.278Z,25.89
2023-11-19T04:53:06.313Z,25.89
2023-11-19T04:53:36.340Z,25.91
2023-11-19T04:54:06.365Z,25.88
2023-11-19T04:54:36.394Z,25.89
2023-11-19T04:55:06.479Z,25.91
2023-11-19T04:55:36.521Z,25.91
2023-11-19T04:56:06.556Z,25.91
2023-11-19T04:56:36.592Z,25.91
2023-11-19T04:57:06.639Z,25.88
2023-11-19T04:57:36.671Z,25.91
2023-11-19T04:58:06.732Z,25.89
2023-11-19T04:58:36.769Z,25.88
2023-11-19T04:59:06.783Z,25.91
2023-11-19T04:59:36.830Z,25.92
2023-11-19T05:00:16.972Z,25.89
2023-11-19T05:00:36.922Z,25.89
2023-11-19T05:01:07.028Z,25.89
2023-11-19T05:01:37.102Z,25.89
2023-11-19T05:02:07.123Z,25.89
2023-11-19T05:02:37.234Z,25.89
2023-11-19T05:03:07.288Z,25.88
2023-11-19T05:03:37.459Z,25.89
2023-11-19T05:04:07.463Z,25.91
2023-11-19T05:04:37.473Z,25.88
2023-11-19T05:05:07.564Z,25.89
2023-11-19T05:05:37.610Z,25.91
2023-11-19T05:06:07.605Z,25.91
2023-11-19T05:06:37.593Z,25.89
2023-11-19T05:07:37.786Z,25.89
2023-11-19T05:08:07.684Z,25.89
2023-11-19T05:08:37.683Z,25.89
2023-11-19T05:09:37.691Z,25.91
2023-11-19T05:10:07.795Z,25.92
2023-11-19T05:10:37.863Z,25.91
2023-11-19T05:11:07.897Z,25.89
2023-11-19T05:11:51.410Z,25.91
2023-11-19T05:12:07.921Z,25.89
2023-11-19T05:12:37.911Z,25.91
2023-11-19T05:13:08.031Z,25.89
2023-11-19T05:13:38.087Z,25.89
2023-11-19T05:14:08.143Z,25.89
2023-11-19T05:14:38.201Z,25.89
2023-11-19T05:15:08.268Z,25.89
2023-11-19T05:15:38.282Z,25.91
2023-11-19T05:16:08.362Z,25.89
2023-11-19T05:16:38.473Z,25.89
2023-11-19T05:17:08.407Z,25.88
2023-11-19T05:17:38.711Z,25.89
2023-11-19T05:18:08.582Z,25.88
2023-11-19T05:18:40.662Z,25.89
2023-11-19T05:19:08.689Z,25.88
2023-11-19T05:19:38.725Z,25.88
2023-11-19T05:20:08.756Z,25.89
2023-11-19T05:20:38.817Z,25.91
2023-11-19T05:21:08.878Z,25.91
2023-11-19T05:21:38.930Z,25.87
2023-11-19T05:22:09.007Z,25.89
2023-11-19T05:22:39.093Z,25.88
2023-11-19T05:23:39.147Z,25.91
2023-11-19T05:24:09.291Z,25.88
2023-11-19T05:24:39.407Z,25.88
2023-11-19T05:25:09.358Z,25.88
2023-11-19T05:25:39.346Z,25.88
2023-11-19T05:26:09.431Z,25.88
2023-11-19T05:26:39.442Z,25.88
2023-11-19T05:27:09.485Z,25.89
2023-11-19T05:27:39.534Z,25.89
2023-11-19T05:28:09.561Z,25.85
2023-11-19T05:28:39.606Z,25.87
2023-11-19T05:29:09.641Z,25.88
2023-11-19T05:29:39.682Z,25.89
2023-11-19T05:30:09.720Z,25.88
2023-11-19T05:30:39.801Z,25.87
2023-11-19T05:31:09.890Z,25.89
2023-11-19T05:31:40.956Z,25.88
2023-11-19T05:32:09.941Z,25.88
2023-11-19T05:32:39.983Z,25.87
2023-11-19T05:33:10.006Z,25.88
2023-11-19T05:33:40.108Z,25.88
2023-11-19T05:34:10.223Z,25.85
2023-11-19T05:34:52.032Z,25.85
2023-11-19T05:35:10.182Z,25.87
2023-11-19T05:35:40.223Z,25.87
2023-11-19T05:36:10.276Z,25.85
2023-11-19T05:36:40.304Z,25.87
2023-11-19T05:37:10.362Z,25.88
2023-11-19T05:37:40.422Z,25.88
2023-11-19T05:38:10.501Z,25.87
2023-11-19T05:38:40.532Z,25.87
2023-11-19T05:39:10.562Z,25.87
2023-11-19T05:39:40.596Z,25.85
2023-11-19T05:40:10.661Z,25.87
2023-11-19T05:40:40.778Z,25.89
2023-11-19T05:41:10.724Z,25.85
2023-11-19T05:41:40.751Z,25.87
2023-11-19T05:42:10.808Z,25.87
2023-11-19T05:42:40.831Z,25.87
2023-11-19T05:43:10.869Z,25.88
2023-11-19T05:43:40.950Z,25.88
2023-11-19T05:44:10.896Z,25.87
2023-11-19T05:44:41.712Z,25.87
2023-11-19T05:45:11.021Z,25.87
2023-11-19T05:45:41.059Z,25.88
2023-11-19T05:46:41.308Z,25.85
2023-11-19T05:47:11.352Z,25.84
2023-11-19T05:47:41.455Z,25.85
2023-11-19T05:48:11.424Z,25.87
2023-11-19T05:48:41.442Z,25.85
2023-11-19T05:49:11.500Z,25.87
2023-11-19T05:49:41.500Z,25.85
2023-11-19T05:50:11.528Z,25.84
2023-11-19T05:50:41.558Z,25.85
2023-11-19T05:51:11.647Z,25.85
2023-11-19T05:51:41.699Z,25.85
2023-11-19T05:52:11.747Z,25.85
2023-11-19T05:52:41.791Z,25.85
2023-11-19T05:53:11.825Z,25.82
2023-11-19T05:53:41.857Z,25.84
2023-11-19T05:54:11.938Z,25.85
2023-11-19T05:54:41.954Z,25.84
2023-11-19T05:55:12.314Z,25.84
2023-11-19T05:55:41.983Z,25.85
2023-11-19T05:56:12.017Z,25.84
2023-11-19T05:56:42.057Z,25.85
2023-11-19T05:57:12.090Z,25.87
2023-11-19T05:58:12.208Z,25.84
2023-11-19T05:58:42.225Z,25.85
2023-11-19T05:59:12.265Z,25.84
2023-11-19T05:59:42.295Z,25.85
2023-11-19T06:00:12.328Z,25.85
2023-11-19T06:00:42.384Z,25.85
2023-11-19T06:01:12.507Z,25.85
2023-11-19T06:01:42.459Z,25.84
2023-11-19T06:02:12.521Z,25.82
2023-11-19T06:02:42.561Z,25.85
2023-11-19T06:03:12.615Z,25.82
2023-11-19T06:03:42.700Z,25.87
2023-11-19T06:04:12.784Z,25.82
2023-11-19T06:04:42.827Z,25.84
2023-11-19T06:05:12.799Z,25.84
2023-11-19T06:05:42.887Z,25.85
2023-11-19T06:06:13.007Z,25.82
2023-11-19T06:06:43.126Z,25.82
2023-11-19T06:07:13.285Z,25.85
2023-11-19T06:07:43.305Z,25.85
2023-11-19T06:08:13.298Z,25.84
2023-11-19T06:08:43.413Z,25.84
2023-11-19T06:09:14.280Z,25.85
2023-11-19T06:09:43.568Z,25.85
2023-11-19T06:10:13.601Z,25.85
2023-11-19T06:10:43.586Z,25.84
2023-11-19T06:11:13.600Z,25.85
2023-11-19T06:11:43.719Z,25.85
2023-11-19T06:12:13.719Z,25.85
2023-11-19T06:12:43.744Z,25.85
2023-11-19T06:13:13.809Z,25.85
2023-11-19T06:13:43.874Z,25.88
2023-11-19T06:14:13.928Z,25.84
2023-11-19T06:14:43.946Z,25.84
2023-11-19T06:15:13.986Z,25.85
2023-11-19T06:15:44.108Z,25.85
2023-11-19T06:16:14.137Z,25.87
2023-11-19T06:16:44.100Z,25.84
2023-11-19T06:17:14.190Z,25.85
2023-11-19T06:17:44.320Z,25.87
2023-11-19T06:18:14.352Z,25.85
2023-11-19T06:18:44.292Z,25.87
2023-11-19T06:19:14.390Z,25.87
2023-11-19T06:19:44.373Z,25.87
2023-11-19T06:20:14.399Z,25.85
2023-11-19T06:20:44.438Z,25.87
2023-11-19T06:21:14.646Z,25.85
2023-11-19T06:21:44.549Z,25.85
2023-11-19T06:22:44.724Z,25.87
2023-11-19T06:23:14.742Z,25.85
2023-11-19T06:23:44.761Z,25.84
2023-11-19T06:24:14.791Z,25.85
2023-11-19T06:24:44.816Z,25.87
2023-11-19T06:25:14.882Z,25.87
2023-11-19T06:25:45.007Z,25.85
2023-11-19T06:26:15.016Z,25.85
2023-11-19T06:26:45.044Z,25.87
2023-11-19T06:27:15.085Z,25.85
2023-11-19T06:27:45.107Z,25.85
2023-11-19T06:28:15.177Z,25.87
2023-11-19T06:28:45.272Z,25.84
2023-11-19T06:29:15.279Z,25.85
2023-11-19T06:29:45.326Z,25.85
2023-11-19T06:30:15.348Z,25.84
2023-11-19T06:30:48.611Z,25.84
2023-11-19T06:31:15.420Z,25.85
2023-11-19T06:31:45.444Z,25.82
2023-11-19T06:32:15.586Z,25.84
2023-11-19T06:32:45.482Z,25.87
2023-11-19T06:33:15.590Z,25.85
2023-11-19T06:33:45.582Z,25.85
2023-11-19T06:34:15.656Z,25.87
2023-11-19T06:34:45.672Z,25.85
2023-11-19T06:35:15.705Z,25.85
2023-11-19T06:35:45.757Z,25.85
2023-11-19T06:36:15.766Z,25.87
2023-11-19T06:36:45.935Z,25.87
2023-11-19T06:37:15.907Z,25.85
2023-11-19T06:37:45.974Z,25.85